METAR Data
IDs: Format: Raw Decoded Include TAF

Data at: 1524 UTC 03 Dec 2021

KMEH 031514Z AUTO 00000KT 10SM BKN002 M03/M04 A3020 RMK AO2 T10331039
KMEH 031506Z AUTO 00000KT 10SM SCT002 M03/M04 A3021 RMK AO2 T10331039
KMEH 031356Z AUTO 00000KT 10SM CLR M03/M03 A3018 RMK AO2 SLP242 I1000 T10281033
KMEH 031330Z AUTO 00000KT 10SM SCT002 M03/M03 A3019 RMK AO2 I1000 T10281033
KMEH 031256Z AUTO 00000KT 10SM BKN002 M02/M03 A3019 RMK AO2 SLP241 T10221028
KMEH 031252Z AUTO 00000KT 10SM SCT002 M02/M03 A3019 RMK AO2
KMEH 031156Z AUTO 00000KT 10SM CLR M02/M03 A3018 RMK AO2 SLP239 T10221033 10028 21022 58002
KMEH 031118Z AUTO 00000KT 10SM SCT004 M02/M03 A3020 RMK AO2 T10221028
KMEH 031056Z AUTO 00000KT 10SM OVC005 M02/M03 A3020 RMK AO2 SLP242 T10171028
KMEH 031041Z AUTO 00000KT 10SM BKN005 M02/M03 A3020 RMK AO2 T10171028
KMEH 031027Z AUTO 00000KT 10SM FEW003 M02/M03 A3021 RMK AO2 T10171028
KMEH 030956Z AUTO 00000KT 10SM CLR M01/M02 A3020 RMK AO2 SLP243 T10111017
KMEH 030856Z AUTO 00000KT 10SM CLR 00/M01 A3019 RMK AO2 SLP237 T00001006 58005
KMEH 030756Z AUTO 00000KT 10SM CLR 01/00 A3020 RMK AO2 SLP238 T00110000 400940011
KMEH 030656Z AUTO 00000KT 10SM SCT009 02/01 A3021 RMK AO2 SLP240 T00170006
KMEH 030651Z AUTO 00000KT 10SM SCT009 02/01 A3021 RMK AO2
KMEH 030556Z AUTO 00000KT 10SM OVC011 02/01 A3021 RMK AO2 SLP244 T00220011 10072 20022 55001
KMEH 030456Z AUTO 00000KT 10SM BKN014 03/02 A3021 RMK AO2 SLP241 T00330017
KMEH 030356Z AUTO 00000KT 10SM BKN012 04/02 A3021 RMK AO2 SLP245 T00390017
KMEH 030256Z AUTO 00000KT 10SM OVC011 04/02 A3022 RMK AO2 SLP246 T00440022 53009
KMEH 030232Z AUTO 00000KT 10SM OVC013 04/02 A3021 RMK AO2 T00440022
KMEH 030210Z AUTO 00000KT 10SM SCT008 OVC017 05/03 A3020 RMK AO2 T00500028
KMEH 030156Z AUTO 00000KT 10SM BKN008 OVC017 05/03 A3020 RMK AO2 SLP240 T00500033
KMEH 030123Z AUTO 00000KT 10SM BKN009 OVC024 06/04 A3020 RMK AO2 T00560039
KMEH 030056Z AUTO 00000KT 10SM OVC025 06/04 A3019 RMK AO2 SLP236 T00610039
KMEH 022356Z AUTO 00000KT 10SM BKN023 07/03 A3019 RMK AO2 SLP231 T00720033 10094 20072 53006
KMEH 022340Z AUTO 00000KT 10SM BKN023 07/03 A3018 RMK AO2 T00720033
KMEH 022330Z AUTO 00000KT 10SM SCT023 07/03 A3018 RMK AO2 T00720033
KMEH 022319Z AUTO 00000KT 10SM BKN024 08/03 A3018 RMK AO2 T00780033
KMEH 022256Z AUTO 00000KT 10SM FEW044 08/03 A3018 RMK AO2 SLP228 T00780033
KMEH 022156Z AUTO VRB03KT 10SM FEW028 09/03 A3016 RMK AO2 SLP223 T00890028
KMEH 022056Z AUTO 00000KT 10SM CLR 09/02 A3017 RMK AO2 SLP224 T00890022 58010
KMEH 021956Z AUTO 00000KT 10SM CLR 08/02 A3019 RMK AO2 SLP237 T00830022
KMEH 021856Z AUTO VRB03KT 10SM CLR 09/03 A3019 RMK AO2 SLP235 T00890028
KMEH 021756Z AUTO 00000KT 10SM FEW029 FEW042 SCT070 08/03 A3020 RMK AO2 SLP236 T00780028 10083 20033 53011
KMEH 021656Z AUTO VRB03KT 10SM SCT065 07/03 A3018 RMK AO2 SLP231 T00720033
KMEH 021605Z AUTO 00000KT 10SM SCT026 BKN060 04/03 A3017 RMK AO2 T00440033
KMEH 021556Z AUTO 00000KT 10SM BKN026 OVC060 05/04 A3016 RMK AO2 SLP225 T00500039
KMEH 021456Z AUTO 00000KT 10SM OVC028 04/04 A3016 RMK AO2 SLP224 T00440039 53011
KMEH 021446Z AUTO 00000KT 10SM OVC029 04/03 A3016 RMK AO2 T00440033
KMEH 021356Z AUTO 00000KT 10SM SCT032 OVC055 03/03 A3014 RMK AO2 SLP215 T00330028
KMEH 021256Z AUTO 00000KT 10SM FEW050 04/03 A3012 RMK AO2 SLP205 T00390033
KMEH 021156Z AUTO 00000KT 10SM OVC050 04/04 A3013 RMK AO2 SLP204 T00440039 10044 20017 58004
KMEH 021056Z AUTO 00000KT 10SM OVC050 04/03 A3014 RMK AO2 SLP206 T00390033
KMEH 020956Z AUTO 00000KT 10SM OVC049 03/03 A3014 RMK AO2 SLP203 T00330028
KMEH 020856Z AUTO 00000KT 10SM OVC043 03/02 A3014 RMK AO2 SLP203 T00280017 58009
KMEH 020756Z AUTO 00000KT 10SM BKN038 02/01 A3015 RMK AO2 SLP208 T00170011 401780017
KMEH 020656Z AUTO 00000KT 10SM FEW070 02/02 A3016 RMK AO2 SLP213 T00220017
KMEH 020556Z AUTO 00000KT 10SM CLR 03/02 A3017 RMK AO2 SLP223 T00280022 10117 20028 53004
KMEH 020456Z AUTO 00000KT 10SM CLR 04/03 A3015 RMK AO2 SLP219 T00390028
KMEH 020356Z AUTO 00000KT 10SM CLR 05/04 A3016 RMK AO2 SLP223 T00500039
KMEH 020256Z AUTO 00000KT 10SM CLR 07/06 A3015 RMK AO2 SLP220 T00670056 56009
KMEH 020156Z AUTO 00000KT 10SM BKN100 08/06 A3017 RMK AO2 SLP222 T00780061
KMEH 020056Z AUTO 00000KT 10SM CLR 09/07 A3017 RMK AO2 SLP223 T00890067
KMEH 012356Z AUTO 00000KT 10SM CLR 12/08 A3018 RMK AO2 SLP225 T01170078 10178 20106 56006
KMEH 012256Z AUTO 00000KT 10SM CLR 14/07 A3019 RMK AO2 SLP224 T01440072
KMEH 012156Z AUTO VRB03KT 10SM CLR 17/07 A3020 RMK AO2 SLP223 T01720067
KMEH 012056Z AUTO VRB05KT 10SM CLR 18/07 A3021 RMK AO2 SLP222 T01780067 57013
KMEH 011956Z AUTO 00000KT 10SM CLR 18/07 A3022 RMK AO2 SLP226 T01780067
KMEH 011856Z AUTO 26003KT 10SM CLR 17/08 A3024 RMK AO2 SLP235 T01670078
KMEH 011756Z AUTO 00000KT 10SM CLR 11/08 A3025 RMK AO2 SLP245 T01060078 10111 20039 58002
KMEH 011656Z AUTO 00000KT 10SM CLR 08/07 A3026 RMK AO2 SLP252 T00830067
KMEH 011556Z AUTO 00000KT 6SM BR CLR 04/04 A3025 RMK AO2 SLP256 T00440044
KMEH 011456Z AUTO 00000KT 10SM CLR 05/04 A3025 RMK AO2 SLP256 T00500044 56007
KMEH 011356Z AUTO 00000KT 10SM CLR 05/04 A3026 RMK AO2 SLP258 T00500044
KMEH 011256Z AUTO 00000KT 10SM CLR 04/04 A3026 RMK AO2 SLP258 T00440039
KMEH 011156Z AUTO 00000KT 10SM CLR 04/04 A3028 RMK AO2 SLP264 T00440039 10067 20044 58009
KMEH 011056Z AUTO 00000KT 9SM CLR 04/04 A3029 RMK AO2 SLP268 T00440039
KMEH 010956Z AUTO 00000KT 10SM FEW032 05/04 A3030 RMK AO2 SLP269 T00500044
KMEH 010856Z AUTO 00000KT 10SM OVC030 06/06 A3031 RMK AO2 SLP270 T00610056 56005
KMEH 010853Z AUTO 00000KT 10SM OVC030 06/06 A3031 RMK AO2
KMEH 010756Z AUTO 00000KT 10SM OVC027 06/06 A3031 RMK AO2 SLP276 T00610056 400891017
KMEH 010556Z AUTO 00000KT 10SM OVC029 07/06 A3033 RMK AO2 SLP281 T00670056 10067 20056 51012
KMEH 010523Z AUTO 00000KT 10SM OVC029 07/06 A3032 RMK AO2 T00670056
KMEH 010356Z AUTO 00000KT 10SM OVC030 06/06 A3031 RMK AO2 SLP277 T00610056
KMEH 010256Z AUTO 00000KT 10SM OVC032 06/05 A3029 RMK AO2 SLP272 T00610050 53003
KMEH 010156Z AUTO 00000KT 10SM OVC032 06/06 A3028 RMK AO2 SLP271 T00610056
KMEH 010056Z AUTO 00000KT 10SM SCT033 BKN049 BKN080 06/05 A3027 RMK AO2 SLP269 T00610050
KMEH 302356Z AUTO 00000KT 10SM BKN033 BKN080 OVC110 07/06 A3028 RMK AO2 SLP270 60000 T00670056 10089 20039 53007
KMEH 302256Z AUTO 00000KT 10SM BKN039 OVC050 07/05 A3027 RMK AO2 RAB11E39 SLP267 P0000 T00670050
KMEH 302156Z AUTO 00000KT 10SM OVC050 08/05 A3026 RMK AO2 SLP263 T00780050
KMEH 302056Z AUTO 00000KT 10SM SCT046 BKN065 OVC080 08/05 A3025 RMK AO2 SLP262 T00780050 50004
KMEH 301956Z AUTO 00000KT 10SM OVC050 06/04 A3026 RMK AO2 SLP266 T00560044
KMEH 301856Z AUTO 00000KT 10SM OVC055 05/03 A3026 RMK AO2 SLP267 T00500033
KMEH 301756Z AUTO 00000KT 10SM OVC060 04/02 A3024 RMK AO2 SLP262 T00390022 10039 21006 53012
KMEH 301656Z AUTO 00000KT 10SM OVC070 03/02 A3022 RMK AO2 SLP257 T00280017
KMEH 301556Z AUTO 00000KT 10SM OVC036 02/01 A3021 RMK AO2 SLP253 T00220011
KMEH 301456Z AUTO 00000KT 10SM FEW041 BKN110 02/00 A3020 RMK AO2 SLP250 T00170000 58002
KMEH 301356Z AUTO 10003KT 10SM CLR 01/00 A3020 RMK AO2 SLP250 T00060000
KMEH 301256Z AUTO 00000KT 10SM CLR 01/00 A3022 RMK AO2 SLP254 T00060000
KMEH 301156Z AUTO 00000KT 10SM CLR M01/M01 A3021 RMK AO2 SLP249 70032 I1000 I6001 T10061011 10000 21017 58014
KMEH 301056Z AUTO 00000KT 10SM CLR M01/M01 A3024 RMK AO2 SLP258 I1000 T10061006
KMEH 300956Z AUTO 00000KT 10SM CLR M01/M02 A3025 RMK AO2 SLP262 T10111017
KMEH 300856Z AUTO 00000KT 10SM CLR M01/M02 A3025 RMK AO2 SLP262 I1001 I3001 T10111022 58010
KMEH 300756Z AUTO 00000KT 10SM CLR M02/M03 A3029 RMK AO2 SLP276 T10171028 400831017
KMEH 300656Z AUTO 00000KT 10SM CLR M02/M02 A3028 RMK AO2 SLP273 I1000 T10171022
KMEH 300636Z AUTO 00000KT 10SM FEW002 M02/M02 A3028 RMK AO2 I1000 T10171022
KMEH 300556Z AUTO 00000KT 10SM CLR M01/M02 A3029 RMK AO2 SLP275 I1000 I6000 T10111017 10050 21011 56007
KMEH 300456Z AUTO 00000KT 10SM CLR M01/M01 A3029 RMK AO2 SLP277 T10061011
KMEH 300356Z AUTO 00000KT 10SM FEW002 M01/M01 A3027 RMK AO2 SLP271 I1000 T10061011
KMEH 300334Z AUTO 00000KT 10SM FEW002 M01/M01 A3029 RMK AO2 I1000 T10061011
KMEH 300256Z AUTO 00000KT 10SM CLR 00/M01 A3031 RMK AO2 SLP286 T00001006 50007
KMEH 300z7Z AUTO 00000KT 10SM SCT001 01/00 A3032
KMEH 300z7Z AUTO 00000KT 10SM SCT001 01/00 A3032 RMK AO2 T00060000
KMEH 300227Z AUTO 00000KT 10SM SCT001 01/00 A3032 RMK AO2 T00060000
KMEH 300156Z AUTO 00000KT 4SM BR OVC001 01/01 A3032 RMK AO2 SLP290 T00110006
KMEH 300149Z AUTO 00000KT 3SM BR OVC001 02/01 A3032 RMK AO2 T00170011
KMEH 30013
KMEH 30013
KMEH 300138Z AUTO 00000KT 1 3/4SM BR BKN001 02/01 A3032 RMK AO2 T00170011
KMEH 300131Z AUTO 00000KT 10SM BKN001 02/02 A3032 RMK AO2 T00220017
KMEH 300056Z AUTO 00000KT 7SM SCT002 03/02 A3031 RMK AO2 SLP283 T00280022
KMEH 300035Z AUTO 00000KT 10SM SCT001 04/03 A3030 RMK AO2 T00390028
KMEH 292356Z AUTO 00000KT 10SM CLR 05/04 A3029 RMK AO2 SLP274 60014 T00500044 10083 20050 53002
KMEH 292256Z AUTO 00000KT 10SM CLR 07/05 A3027 RMK AO2 SLP266 T00720050
KMEH 292156Z AUTO 00000KT 10SM CLR 08/05 A3027 RMK AO2 SLP267 T00780050
KMEH 292056Z AUTO 00000KT 10SM CLR 08/06 A3028 RMK AO2 SLP270 60014 T00780056 51000
KMEH 291956Z AUTO 00000KT 10SM SCT008 BKN032 BKN060 07/06 A3028 RMK AO2 RAE44 SLP270 P0003 T00720061
KMEH 291943Z AUTO 00000KT 10SM -RA SCT008 BKN033 OVC075 07/06 A3028 RMK AO2 P0003 T00720061
KMEH 291911Z AUTO 00000KT 8SM -RA BKN008 BKN018 OVC027 06/06 A3029 RMK AO2 P0002 T00610056
KMEH 291900Z AUTO 00000KT 6SM -RA BR SCT011 BKN018 OVC027 06/05 A3029 RMK AO2 P0000 T00610050
KMEH 291853Z AUTO 00000KT 2 1/2SM RA BR FEW014 OVC029 06/05 A3029 RMK AO2 SLP276 P0011 T00610050
KMEH 291840Z AUTO VRB03KT 1 3/4SM +RA BR FEW011 BKN022 OVC070 06/06 A3030 RMK AO2 P0005 T00610056
KMEH 291756Z AUTO 00000KT 8SM -RA SCT035 BKN044 OVC075 06/06 A3028 RMK AO2 PRESRR SLP271 P0006 60018 T00610056 10061 20017 53019
KMEH 291721Z AUTO 00000KT 6SM -RA BR SCT007 BKN037 OVC045 06/06 A3026 RMK AO2 P0006 T00610056
KMEH 291711Z AUTO 00000KT 2SM +RA BR BKN007 BKN013 OVC027 06/05 A3026 RMK AO2 P0004 T00610050
KMEH 291703Z AUTO VRB03KT 3SM RA BR BKN007 BKN011 OVC035 06/05 A3026 RMK AO2 P0001 T00560050
KMEH 291656Z AUTO VRB03KT 4SM -RA BR FEW007 BKN024 OVC035 06/05 A3025 RMK AO2 SLP261 P0004 T00560050
KMEH 291646Z AUTO 00000KT 4SM RA BR FEW007 SCT022 OVC032 05/05 A3024 RMK AO2 P0003 T00500050
KMEH 291635Z AUTO 00000KT 5SM -RA BR FEW007 BKN022 OVC038 05/04 A3024 RMK AO2 P0002 T00500044
KMEH 291622Z AUTO 00000KT 3SM -RA BR SCT016 BKN028 OVC041 04/04 A3023 RMK AO2 P0001 T00440044
KMEH 291611Z AUTO 00000KT 5SM -RA BR FEW006 SCT021 OVC034 04/04 A3023 RMK AO2 P0000 T00440044
KMEH 291556Z AUTO 00000KT 4SM -RA BR FEW016 OVC032 04/03 A3022 RMK AO2 SLP251 P0006 T00390033
KMEH 291519Z AUTO 00000KT 6SM RA BR BKN025 OVC033 03/03 A3023 RMK AO2 P0001 T00280028
KMEH 291456Z AUTO 00000KT 10SM -RA SCT031 OVC044 03/03 A3022 RMK AO2 SLP249 P0002 60002 T00330028 53004
KMEH 291356Z AUTO 00000KT 10SM -RA OVC030 02/02 A3020 RMK AO2 RAB52 SLP245 P0000 T00220017
KMEH 291256Z AUTO 00000KT 10SM OVC039 02/01 A3021 RMK AO2 SLP243 T00170011
KMEH 291156Z AUTO 00000KT 10SM OVC043 01/01 A3020 RMK AO2 SLP242 T00110006 10011 21006 58004
KMEH 291056Z AUTO 00000KT 10SM OVC046 00/M01 A3022 RMK AO2 SLP244 T00001006
KMEH 290956Z AUTO 00000KT 10SM BKN055 M01/M01 A3022 RMK AO2 SLP242 T10061011
KMEH 290856Z AUTO 00000KT 10SM FEW060 M01/M01 A3022 RMK AO2 SLP242 T10061011 58004
KMEH 290756Z AUTO 00000KT 10SM FEW070 BKN120 M01/M01 A3024 RMK AO2 SLP252 T10061011 401221006
KMEH 290656Z AUTO 00000KT 10SM CLR 00/M01 A3024 RMK AO2 SLP253 T00001006
KMEH 290556Z AUTO 00000KT 10SM CLR 01/00 A3023 RMK AO2 SLP251 T00060000 10078 20006 51005
KMEH 290456Z AUTO 00000KT 10SM CLR 02/01 A3023 RMK AO2 SLP253 T00170006
KMEH 290356Z AUTO 00000KT 10SM CLR 03/02 A3022 RMK AO2 SLP251 T00280017
KMEH 290256Z AUTO 00000KT 10SM CLR 03/02 A3021 RMK AO2 SLP247 T00330022 52007
KMEH 290156Z AUTO 00000KT 10SM CLR 04/03 A3021 RMK AO2 SLP246 T00440033
KMEH 290056Z AUTO 00000KT 10SM CLR 06/05 A3019 RMK AO2 SLP239 T00610050
KMEH 282356Z AUTO 00000KT 10SM CLR 08/06 A3019 RMK AO2 SLP234 T00780056 10122 20078 55001
KMEH 282256Z AUTO 00000KT 10SM CLR 10/06 A3018 RMK AO2 SLP225 T01000061
KMEH 282156Z AUTO 10004KT 10SM CLR 12/06 A3018 RMK AO2 SLP222 T01170056
KMEH 282056Z AUTO 00000KT 10SM CLR 11/06 A3019 RMK AO2 SLP226 T01110056 58010
KMEH 281956Z AUTO 00000KT 10SM CLR 11/06 A3021 RMK AO2 SLP232 T01060056
KMEH 281856Z AUTO 00000KT 10SM CLR 09/06 A3023 RMK AO2 SLP239 T00940056
KMEH 281756Z AUTO 00000KT 10SM CLR 08/06 A3023 RMK AO2 SLP241 T00830061 10083 20017 53008
KMEH 281656Z AUTO 00000KT 10SM CLR 04/04 A3021 RMK AO2 SLP243 T00440039
KMEH 281556Z AUTO 00000KT 10SM CLR 02/02 A3021 RMK AO2 SLP244 T00220017